sensor_id;sensor_type;location;lat;lon;timestamp;pressure;altitude;pressure_sealevel;temperature;humidity
15405;BME280;7801;48.124;11.590;2023-02-16T00:01:54;96437.03;;;2.47;90.46
15405;BME280;7801;48.124;11.590;2023-02-16T00:04:21;96437.34;;;2.57;90.06
15405;BME280;7801;48.124;11.590;2023-02-16T00:06:48;96439.84;;;2.70;89.66
15405;BME280;7801;48.124;11.590;2023-02-16T00:09:13;96442.47;;;2.70;88.90
15405;BME280;7801;48.124;11.590;2023-02-16T00:11:40;96442.22;;;2.54;89.74
15405;BME280;7801;48.124;11.590;2023-02-16T00:14:24;96437.41;;;2.51;89.76
15405;BME280;7801;48.124;11.590;2023-02-16T00:16:57;96434.78;;;2.51;89.75
15405;BME280;7801;48.124;11.590;2023-02-16T00:19:25;96439.13;;;2.63;89.48
15405;BME280;7801;48.124;11.590;2023-02-16T00:21:53;96431.22;;;2.70;89.03
15405;BME280;7801;48.124;11.590;2023-02-16T00:24:19;96438.41;;;2.74;88.12
15405;BME280;7801;48.124;11.590;2023-02-16T00:26:45;96430.41;;;2.45;89.46
15405;BME280;7801;48.124;11.590;2023-02-16T00:29:24;96432.63;;;2.48;89.89
15405;BME280;7801;48.124;11.590;2023-02-16T00:31:51;96425.78;;;2.90;88.08
15405;BME280;7801;48.124;11.590;2023-02-16T00:36:48;96417.94;;;2.65;88.14
15405;BME280;7801;48.124;11.590;2023-02-16T00:39:13;96418.06;;;2.52;88.54
15405;BME280;7801;48.124;11.590;2023-02-16T00:41:38;96404.44;;;2.43;88.63
15405;BME280;7801;48.124;11.590;2023-02-16T00:44:19;96405.03;;;2.20;89.37
15405;BME280;7801;48.124;11.590;2023-02-16T00:46:46;96406.16;;;2.31;89.25
15405;BME280;7801;48.124;11.590;2023-02-16T00:49:19;96403.09;;;2.34;89.17
15405;BME280;7801;48.124;11.590;2023-02-16T00:51:45;96400.31;;;2.29;88.67
15405;BME280;7801;48.124;11.590;2023-02-16T00:54:11;96407.41;;;2.28;88.90
15405;BME280;7801;48.124;11.590;2023-02-16T00:56:37;96391.56;;;2.41;88.61
15405;BME280;7801;48.124;11.590;2023-02-16T00:59:05;96391.06;;;2.51;88.03
15405;BME280;7801;48.124;11.590;2023-02-16T01:01:32;96386.66;;;2.27;87.65
15405;BME280;7801;48.124;11.590;2023-02-16T01:04:00;96394.03;;;2.12;88.39
15405;BME280;7801;48.124;11.590;2023-02-16T01:06:26;96388.00;;;1.86;89.38
15405;BME280;7801;48.124;11.590;2023-02-16T01:09:19;96395.06;;;1.79;90.04
15405;BME280;7801;48.124;11.590;2023-02-16T01:12:12;96382.88;;;1.98;89.80
15405;BME280;7801;48.124;11.590;2023-02-16T01:14:38;96378.09;;;2.13;88.86
15405;BME280;7801;48.124;11.590;2023-02-16T01:17:04;96383.03;;;2.28;87.94
15405;BME280;7801;48.124;11.590;2023-02-16T01:19:29;96385.97;;;2.13;87.76
15405;BME280;7801;48.124;11.590;2023-02-16T01:21:55;96389.63;;;2.30;87.67
15405;BME280;7801;48.124;11.590;2023-02-16T01:24:20;96393.97;;;2.43;87.13
15405;BME280;7801;48.124;11.590;2023-02-16T01:26:48;96387.44;;;2.52;85.95
15405;BME280;7801;48.124;11.590;2023-02-16T01:29:19;96388.78;;;2.36;86.33
15405;BME280;7801;48.124;11.590;2023-02-16T01:31:45;96389.94;;;2.65;85.39
15405;BME280;7801;48.124;11.590;2023-02-16T01:34:11;96395.25;;;2.77;84.60
15405;BME280;7801;48.124;11.590;2023-02-16T01:36:39;96399.03;;;2.63;85.11
15405;BME280;7801;48.124;11.590;2023-02-16T01:39:06;96394.44;;;2.76;84.59
15405;BME280;7801;48.124;11.590;2023-02-16T01:44:24;96398.66;;;2.59;85.55
15405;BME280;7801;48.124;11.590;2023-02-16T01:47:04;96400.53;;;2.52;86.23
15405;BME280;7801;48.124;11.590;2023-02-16T01:49:33;96396.09;;;2.53;86.99
15405;BME280;7801;48.124;11.590;2023-02-16T01:52:10;96385.94;;;2.81;85.59
15405;BME280;7801;48.124;11.590;2023-02-16T02:02:22;96389.28;;;2.70;87.86
15405;BME280;7801;48.124;11.590;2023-02-16T02:04:54;96391.97;;;2.82;87.81
15405;BME280;7801;48.124;11.590;2023-02-16T02:08:18;96392.72;;;2.89;87.48
15405;BME280;7801;48.124;11.590;2023-02-16T02:13:28;96389.22;;;2.95;88.08
15405;BME280;7801;48.124;11.590;2023-02-16T02:15:57;96394.75;;;2.87;88.27
15405;BME280;7801;48.124;11.590;2023-02-16T02:18:23;96384.12;;;2.82;88.75
15405;BME280;7801;48.124;11.590;2023-02-16T02:23:52;96384.19;;;2.93;87.94
15405;BME280;7801;48.124;11.590;2023-02-16T02:29:26;96377.75;;;2.53;89.37
15405;BME280;7801;48.124;11.590;2023-02-16T02:32:03;96372.53;;;2.53;89.87
15405;BME280;7801;48.124;11.590;2023-02-16T02:34:48;96371.88;;;2.75;88.86
15405;BME280;7801;48.124;11.590;2023-02-16T02:37:40;96381.56;;;2.57;88.83
15405;BME280;7801;48.124;11.590;2023-02-16T02:45:48;96378.88;;;2.82;87.34
15405;BME280;7801;48.124;11.590;2023-02-16T02:48:15;96376.53;;;2.73;87.40
15405;BME280;7801;48.124;11.590;2023-02-16T02:50:46;96372.78;;;2.69;87.38
15405;BME280;7801;48.124;11.590;2023-02-16T02:53:33;96372.19;;;2.86;86.93
15405;BME280;7801;48.124;11.590;2023-02-16T02:56:01;96368.78;;;2.67;87.67
15405;BME280;7801;48.124;11.590;2023-02-16T02:58:49;96366.50;;;2.70;87.64
15405;BME280;7801;48.124;11.590;2023-02-16T03:01:36;96372.19;;;2.49;88.19
15405;BME280;7801;48.124;11.590;2023-02-16T03:04:07;96367.59;;;2.45;89.04
15405;BME280;7801;48.124;11.590;2023-02-16T03:06:36;96368.50;;;2.50;89.20
15405;BME280;7801;48.124;11.590;2023-02-16T03:09:09;96370.72;;;2.71;88.05
15405;BME280;7801;48.124;11.590;2023-02-16T03:11:36;96368.25;;;2.76;87.35
15405;BME280;7801;48.124;11.590;2023-02-16T03:16:53;96368.75;;;2.49;88.61
15405;BME280;7801;48.124;11.590;2023-02-16T03:19:40;96367.22;;;2.59;88.11
15405;BME280;7801;48.124;11.590;2023-02-16T03:22:25;96361.25;;;2.52;88.79
15405;BME280;7801;48.124;11.590;2023-02-16T03:25:10;96360.38;;;2.58;88.70
15405;BME280;7801;48.124;11.590;2023-02-16T03:27:54;96361.25;;;2.70;88.46
15405;BME280;7801;48.124;11.590;2023-02-16T03:30:41;96363.16;;;2.82;87.65
15405;BME280;7801;48.124;11.590;2023-02-16T03:33:07;96361.72;;;2.67;87.37
15405;BME280;7801;48.124;11.590;2023-02-16T03:35:33;96351.09;;;2.62;87.60
15405;BME280;7801;48.124;11.590;2023-02-16T03:37:59;96366.22;;;2.79;87.32
15405;BME280;7801;48.124;11.590;2023-02-16T03:40:25;96363.22;;;2.75;87.08
15405;BME280;7801;48.124;11.590;2023-02-16T03:42:52;96365.63;;;2.76;87.42
15405;BME280;7801;48.124;11.590;2023-02-16T03:45:20;96369.56;;;2.86;86.65
15405;BME280;7801;48.124;11.590;2023-02-16T03:47:45;96365.84;;;2.93;85.88
15405;BME280;7801;48.124;11.590;2023-02-16T03:50:11;96371.09;;;2.75;86.33
15405;BME280;7801;48.124;11.590;2023-02-16T03:52:36;96371.19;;;2.68;87.09
15405;BME280;7801;48.124;11.590;2023-02-16T03:55:02;96375.69;;;2.80;86.19
15405;BME280;7801;48.124;11.590;2023-02-16T03:57:27;96373.50;;;2.76;86.22
15405;BME280;7801;48.124;11.590;2023-02-16T03:59:52;96378.81;;;2.70;86.03
15405;BME280;7801;48.124;11.590;2023-02-16T04:02:18;96392.47;;;2.72;85.80
15405;BME280;7801;48.124;11.590;2023-02-16T04:04:44;96392.03;;;2.75;85.48
15405;BME280;7801;48.124;11.590;2023-02-16T04:07:09;96390.38;;;2.62;85.61
15405;BME280;7801;48.124;11.590;2023-02-16T04:09:35;96391.75;;;2.65;85.78
15405;BME280;7801;48.124;11.590;2023-02-16T04:12:00;96394.75;;;2.68;85.86
15405;BME280;7801;48.124;11.590;2023-02-16T04:14:44;96394.06;;;2.55;86.28
15405;BME280;7801;48.124;11.590;2023-02-16T04:17:09;96387.38;;;2.59;85.62
15405;BME280;7801;48.124;11.590;2023-02-16T04:19:35;96391.81;;;2.58;86.26
15405;BME280;7801;48.124;11.590;2023-02-16T04:22:00;96390.22;;;2.57;86.54
15405;BME280;7801;48.124;11.590;2023-02-16T04:24:25;96394.22;;;2.60;86.20
15405;BME280;7801;48.124;11.590;2023-02-16T04:26:50;96398.81;;;2.64;85.98
15405;BME280;7801;48.124;11.590;2023-02-16T04:29:16;96390.38;;;2.62;85.79
15405;BME280;7801;48.124;11.590;2023-02-16T04:31:41;96398.22;;;2.62;85.90
15405;BME280;7801;48.124;11.590;2023-02-16T04:34:07;96393.56;;;2.64;85.36
15405;BME280;7801;48.124;11.590;2023-02-16T04:36:32;96393.72;;;2.69;85.32
15405;BME280;7801;48.124;11.590;2023-02-16T04:38:58;96390.44;;;2.31;86.14
15405;BME280;7801;48.124;11.590;2023-02-16T04:41:24;96391.53;;;2.48;86.60
15405;BME280;7801;48.124;11.590;2023-02-16T04:43:50;96393.34;;;2.66;85.49
15405;BME280;7801;48.124;11.590;2023-02-16T04:46:15;96389.13;;;2.47;85.89
15405;BME280;7801;48.124;11.590;2023-02-16T04:48:43;96390.00;;;2.77;84.71
15405;BME280;7801;48.124;11.590;2023-02-16T04:51:08;96387.69;;;2.69;84.97
15405;BME280;7801;48.124;11.590;2023-02-16T04:53:33;96393.13;;;2.49;85.59
15405;BME280;7801;48.124;11.590;2023-02-16T04:55:59;96392.81;;;2.57;85.02
15405;BME280;7801;48.124;11.590;2023-02-16T04:58:24;96393.84;;;2.56;85.19
15405;BME280;7801;48.124;11.590;2023-02-16T05:00:49;96388.03;;;2.29;86.01
15405;BME280;7801;48.124;11.590;2023-02-16T05:03:15;96386.72;;;2.45;85.97
15405;BME280;7801;48.124;11.590;2023-02-16T05:05:40;96385.12;;;2.62;84.56
15405;BME280;7801;48.124;11.590;2023-02-16T05:08:05;96388.59;;;2.56;84.68
15405;BME280;7801;48.124;11.590;2023-02-16T05:10:31;96385.91;;;2.45;85.18
15405;BME280;7801;48.124;11.590;2023-02-16T05:12:56;96386.63;;;2.52;84.98
15405;BME280;7801;48.124;11.590;2023-02-16T05:15:41;96385.78;;;2.58;84.74
15405;BME280;7801;48.124;11.590;2023-02-16T05:18:06;96386.19;;;2.55;84.96
15405;BME280;7801;48.124;11.590;2023-02-16T05:20:31;96385.81;;;2.51;84.55
15405;BME280;7801;48.124;11.590;2023-02-16T05:23:15;96392.25;;;2.30;85.51
15405;BME280;7801;48.124;11.590;2023-02-16T05:25:41;96385.41;;;2.29;85.76
15405;BME280;7801;48.124;11.590;2023-02-16T05:28:06;96385.03;;;2.51;85.23
15405;BME280;7801;48.124;11.590;2023-02-16T05:30:31;96391.66;;;2.53;84.61
15405;BME280;7801;48.124;11.590;2023-02-16T05:32:57;96388.00;;;2.36;84.99
15405;BME280;7801;48.124;11.590;2023-02-16T05:35:22;96382.88;;;2.23;85.23
15405;BME280;7801;48.124;11.590;2023-02-16T05:37:48;96385.69;;;2.46;84.87
15405;BME280;7801;48.124;11.590;2023-02-16T05:40:13;96392.69;;;2.70;84.13
15405;BME280;7801;48.124;11.590;2023-02-16T05:42:38;96394.59;;;2.63;83.38
15405;BME280;7801;48.124;11.590;2023-02-16T05:45:04;96399.22;;;2.43;84.08
15405;BME280;7801;48.124;11.590;2023-02-16T05:47:29;96396.75;;;2.48;84.38
15405;BME280;7801;48.124;11.590;2023-02-16T05:49:55;96405.63;;;2.47;84.28
15405;BME280;7801;48.124;11.590;2023-02-16T05:52:20;96409.25;;;2.46;84.38
15405;BME280;7801;48.124;11.590;2023-02-16T05:54:45;96404.06;;;2.39;84.72
15405;BME280;7801;48.124;11.590;2023-02-16T05:57:10;96415.81;;;2.30;84.44
15405;BME280;7801;48.124;11.590;2023-02-16T05:59:36;96420.25;;;2.30;84.76
15405;BME280;7801;48.124;11.590;2023-02-16T06:02:01;96418.84;;;2.52;84.15
15405;BME280;7801;48.124;11.590;2023-02-16T06:04:26;96424.72;;;2.72;82.95
15405;BME280;7801;48.124;11.590;2023-02-16T06:06:52;96423.47;;;2.75;82.52
15405;BME280;7801;48.124;11.590;2023-02-16T06:09:18;96418.13;;;2.88;81.89
15405;BME280;7801;48.124;11.590;2023-02-16T06:11:43;96424.59;;;2.86;81.75
15405;BME280;7801;48.124;11.590;2023-02-16T06:14:11;96432.22;;;2.69;83.03
15405;BME280;7801;48.124;11.590;2023-02-16T06:16:39;96429.28;;;2.59;83.67
15405;BME280;7801;48.124;11.590;2023-02-16T06:19:06;96426.44;;;2.60;84.19
15405;BME280;7801;48.124;11.590;2023-02-16T06:21:32;96428.66;;;2.82;83.60
15405;BME280;7801;48.124;11.590;2023-02-16T06:23:57;96438.19;;;2.76;82.86
15405;BME280;7801;48.124;11.590;2023-02-16T06:26:23;96437.91;;;2.84;82.93
15405;BME280;7801;48.124;11.590;2023-02-16T06:28:48;96438.09;;;3.07;82.55
15405;BME280;7801;48.124;11.590;2023-02-16T06:31:14;96440.59;;;2.96;82.19
15405;BME280;7801;48.124;11.590;2023-02-16T06:33:40;96436.09;;;3.03;82.16
15405;BME280;7801;48.124;11.590;2023-02-16T06:36:05;96435.53;;;3.19;82.06
15405;BME280;7801;48.124;11.590;2023-02-16T06:38:31;96433.28;;;3.04;81.50
15405;BME280;7801;48.124;11.590;2023-02-16T06:40:56;96445.41;;;3.17;81.46
15405;BME280;7801;48.124;11.590;2023-02-16T06:43:21;96445.78;;;3.02;81.96
15405;BME280;7801;48.124;11.590;2023-02-16T06:45:47;96447.03;;;3.18;81.73
15405;BME280;7801;48.124;11.590;2023-02-16T06:48:12;96455.47;;;3.02;81.60
15405;BME280;7801;48.124;11.590;2023-02-16T06:50:37;96454.38;;;3.09;82.24
15405;BME280;7801;48.124;11.590;2023-02-16T06:53:03;96454.22;;;3.04;82.42
15405;BME280;7801;48.124;11.590;2023-02-16T06:55:28;96452.62;;;3.03;81.83
15405;BME280;7801;48.124;11.590;2023-02-16T06:57:58;96454.19;;;3.11;82.13
15405;BME280;7801;48.124;11.590;2023-02-16T07:00:24;96462.78;;;2.93;82.67
15405;BME280;7801;48.124;11.590;2023-02-16T07:02:49;96460.28;;;3.05;82.12
15405;BME280;7801;48.124;11.590;2023-02-16T07:05:15;96457.34;;;3.13;82.61
15405;BME280;7801;48.124;11.590;2023-02-16T07:07:41;96458.47;;;3.05;83.00
15405;BME280;7801;48.124;11.590;2023-02-16T07:10:07;96457.28;;;3.01;83.02
15405;BME280;7801;48.124;11.590;2023-02-16T07:12:32;96459.69;;;3.03;83.72
15405;BME280;7801;48.124;11.590;2023-02-16T07:14:58;96467.41;;;3.16;83.66
15405;BME280;7801;48.124;11.590;2023-02-16T07:17:23;96468.59;;;3.20;83.57
15405;BME280;7801;48.124;11.590;2023-02-16T07:19:48;96471.47;;;3.12;83.87
15405;BME280;7801;48.124;11.590;2023-02-16T07:22:14;96462.09;;;3.23;83.93
15405;BME280;7801;48.124;11.590;2023-02-16T07:24:39;96463.13;;;3.40;83.33
15405;BME280;7801;48.124;11.590;2023-02-16T07:27:04;96466.25;;;3.49;83.02
15405;BME280;7801;48.124;11.590;2023-02-16T07:29:30;96465.84;;;3.82;81.84
15405;BME280;7801;48.124;11.590;2023-02-16T07:31:55;96471.16;;;3.75;81.38
15405;BME280;7801;48.124;11.590;2023-02-16T07:34:22;96471.94;;;3.75;81.63
15405;BME280;7801;48.124;11.590;2023-02-16T07:36:47;96470.53;;;4.98;95.42
15405;BME280;7801;48.124;11.590;2023-02-16T07:39:12;96468.25;;;10.10;100.00
15405;BME280;7801;48.124;11.590;2023-02-16T07:41:38;96459.75;;;11.45;74.32
15405;BME280;7801;48.124;11.590;2023-02-16T07:44:03;96466.88;;;11.69;66.38
15405;BME280;7801;48.124;11.590;2023-02-16T07:46:29;96462.31;;;12.34;60.68
15405;BME280;7801;48.124;11.590;2023-02-16T07:48:54;96470.31;;;12.29;58.35
15405;BME280;7801;48.124;11.590;2023-02-16T07:51:24;96470.25;;;12.45;56.71
15405;BME280;7801;48.124;11.590;2023-02-16T07:53:50;96478.19;;;12.50;55.71
15405;BME280;7801;48.124;11.590;2023-02-16T07:56:20;96488.78;;;10.45;53.83
15405;BME280;7801;48.124;11.590;2023-02-16T07:58:46;96489.38;;;8.58;59.92
15405;BME280;7801;48.124;11.590;2023-02-16T08:01:13;96497.63;;;7.09;65.80
15405;BME280;7801;48.124;11.590;2023-02-16T08:03:39;96494.13;;;6.25;70.00
15405;BME280;7801;48.124;11.590;2023-02-16T08:06:05;96496.59;;;6.14;71.07
15405;BME280;7801;48.124;11.590;2023-02-16T08:08:31;96492.56;;;5.95;72.42
15405;BME280;7801;48.124;11.590;2023-02-16T08:10:56;96497.75;;;5.67;73.94
15405;BME280;7801;48.124;11.590;2023-02-16T08:13:21;96494.25;;;5.49;75.48
15405;BME280;7801;48.124;11.590;2023-02-16T08:15:47;96489.31;;;5.53;75.19
15405;BME280;7801;48.124;11.590;2023-02-16T08:18:12;96497.28;;;5.70;74.87
15405;BME280;7801;48.124;11.590;2023-02-16T08:20:38;96490.81;;;5.61;75.30
15405;BME280;7801;48.124;11.590;2023-02-16T08:23:03;96498.62;;;5.84;74.67
15405;BME280;7801;48.124;11.590;2023-02-16T08:25:32;96492.72;;;5.65;75.20
15405;BME280;7801;48.124;11.590;2023-02-16T08:27:57;96494.63;;;5.93;74.57
15405;BME280;7801;48.124;11.590;2023-02-16T08:30:22;96498.97;;;5.99;74.91
15405;BME280;7801;48.124;11.590;2023-02-16T08:32:49;96498.34;;;6.09;74.04
15405;BME280;7801;48.124;11.590;2023-02-16T08:35:16;96497.25;;;5.93;74.49
15405;BME280;7801;48.124;11.590;2023-02-16T08:37:42;96503.37;;;6.10;74.05
15405;BME280;7801;48.124;11.590;2023-02-16T08:40:08;96498.00;;;6.05;74.75
15405;BME280;7801;48.124;11.590;2023-02-16T08:42:35;96503.69;;;6.14;74.32
15405;BME280;7801;48.124;11.590;2023-02-16T08:45:01;96506.22;;;6.20;74.41
15405;BME280;7801;48.124;11.590;2023-02-16T08:47:26;96509.94;;;6.25;74.29
15405;BME280;7801;48.124;11.590;2023-02-16T08:49:53;96498.81;;;6.51;72.76
15405;BME280;7801;48.124;11.590;2023-02-16T08:52:19;96484.47;;;6.75;71.82
15405;BME280;7801;48.124;11.590;2023-02-16T08:54:44;96491.47;;;6.86;70.73
15405;BME280;7801;48.124;11.590;2023-02-16T08:57:09;96496.84;;;6.92;70.56
15405;BME280;7801;48.124;11.590;2023-02-16T08:59:35;96501.53;;;6.89;70.48
15405;BME280;7801;48.124;11.590;2023-02-16T09:02:00;96490.53;;;6.93;70.10
15405;BME280;7801;48.124;11.590;2023-02-16T09:04:27;96492.75;;;7.01;69.50
15405;BME280;7801;48.124;11.590;2023-02-16T09:06:54;96483.06;;;7.23;68.13
15405;BME280;7801;48.124;11.590;2023-02-16T09:09:20;96495.22;;;7.24;68.01
15405;BME280;7801;48.124;11.590;2023-02-16T09:11:46;96479.19;;;12.93;79.80
15405;BME280;7801;48.124;11.590;2023-02-16T09:14:12;96485.75;;;14.86;63.74
15405;BME280;7801;48.124;11.590;2023-02-16T09:16:38;96484.69;;;15.47;57.23
15405;BME280;7801;48.124;11.590;2023-02-16T09:19:12;96484.94;;;16.19;52.71
15405;BME280;7801;48.124;11.590;2023-02-16T09:21:39;96484.94;;;16.91;50.42
15405;BME280;7801;48.124;11.590;2023-02-16T09:24:07;96483.59;;;13.89;46.37
15405;BME280;7801;48.124;11.590;2023-02-16T09:26:35;96504.75;;;12.05;50.22
15405;BME280;7801;48.124;11.590;2023-02-16T09:29:06;96505.25;;;10.72;53.33
15405;BME280;7801;48.124;11.590;2023-02-16T09:31:35;96495.75;;;9.88;56.42
15405;BME280;7801;48.124;11.590;2023-02-16T09:34:26;96500.91;;;9.53;58.01
15405;BME280;7801;48.124;11.590;2023-02-16T09:36:51;96500.38;;;9.09;60.77
15405;BME280;7801;48.124;11.590;2023-02-16T09:39:20;96491.62;;;8.76;61.22
15405;BME280;7801;48.124;11.590;2023-02-16T09:46:58;96493.53;;;8.81;61.17
15405;BME280;7801;48.124;11.590;2023-02-16T09:49:34;96495.31;;;8.75;61.28
15405;BME280;7801;48.124;11.590;2023-02-16T09:54:49;96494.37;;;8.86;60.66
15405;BME280;7801;48.124;11.590;2023-02-16T10:03:27;96493.56;;;8.86;60.60
15405;BME280;7801;48.124;11.590;2023-02-16T10:06:16;96497.16;;;9.07;59.04
15405;BME280;7801;48.124;11.590;2023-02-16T10:08:52;96499.31;;;9.10;59.26
15405;BME280;7801;48.124;11.590;2023-02-16T10:11:43;96497.47;;;9.15;58.73
15405;BME280;7801;48.124;11.590;2023-02-16T10:14:32;96497.00;;;9.23;58.72
15405;BME280;7801;48.124;11.590;2023-02-16T10:20:04;96491.31;;;9.05;57.45
15405;BME280;7801;48.124;11.590;2023-02-16T10:22:59;96491.84;;;9.02;57.43
15405;BME280;7801;48.124;11.590;2023-02-16T10:25:39;96490.19;;;8.95;58.16
15405;BME280;7801;48.124;11.590;2023-02-16T10:30:35;96482.38;;;9.11;57.85
15405;BME280;7801;48.124;11.590;2023-02-16T10:35:52;96482.22;;;9.27;57.35
15405;BME280;7801;48.124;11.590;2023-02-16T10:41:11;96485.88;;;9.21;58.18
15405;BME280;7801;48.124;11.590;2023-02-16T10:43:49;96486.25;;;9.35;58.06
15405;BME280;7801;48.124;11.590;2023-02-16T10:46:31;96482.09;;;9.54;57.05
15405;BME280;7801;48.124;11.590;2023-02-16T10:48:59;96488.53;;;9.69;56.83
15405;BME280;7801;48.124;11.590;2023-02-16T10:51:30;96483.16;;;9.58;57.15
15405;BME280;7801;48.124;11.590;2023-02-16T10:54:04;96483.72;;;9.65;56.52
15405;BME280;7801;48.124;11.590;2023-02-16T10:59:37;96483.75;;;9.71;56.37
15405;BME280;7801;48.124;11.590;2023-02-16T11:02:14;96479.63;;;9.95;53.54
15405;BME280;7801;48.124;11.590;2023-02-16T11:04:42;96469.84;;;10.11;53.18
15405;BME280;7801;48.124;11.590;2023-02-16T11:09:39;96467.53;;;10.29;54.16
15405;BME280;7801;48.124;11.590;2023-02-16T11:12:21;96462.19;;;10.19;52.59
15405;BME280;7801;48.124;11.590;2023-02-16T11:14:50;96460.94;;;10.52;52.96
15405;BME280;7801;48.124;11.590;2023-02-16T11:17:17;96464.91;;;10.60;50.56
15405;BME280;7801;48.124;11.590;2023-02-16T11:19:51;96460.69;;;10.74;49.71
15405;BME280;7801;48.124;11.590;2023-02-16T11:22:35;96460.69;;;10.79;50.59
15405;BME280;7801;48.124;11.590;2023-02-16T11:27:55;96456.44;;;10.78;50.12
15405;BME280;7801;48.124;11.590;2023-02-16T11:30:33;96453.78;;;10.73;49.89
15405;BME280;7801;48.124;11.590;2023-02-16T11:33:05;96448.47;;;10.58;50.17
15405;BME280;7801;48.124;11.590;2023-02-16T11:35:42;96446.31;;;10.60;50.28
15405;BME280;7801;48.124;11.590;2023-02-16T11:38:32;96440.25;;;10.54;51.21
15405;BME280;7801;48.124;11.590;2023-02-16T11:41:00;96438.12;;;10.56;51.93
15405;BME280;7801;48.124;11.590;2023-02-16T11:43:28;96427.75;;;10.75;50.39
15405;BME280;7801;48.124;11.590;2023-02-16T11:46:21;96433.34;;;10.68;51.15
15405;BME280;7801;48.124;11.590;2023-02-16T11:48:45;96432.81;;;10.72;50.95
15405;BME280;7801;48.124;11.590;2023-02-16T11:51:12;96425.09;;;10.70;51.55
15405;BME280;7801;48.124;11.590;2023-02-16T11:53:43;96418.72;;;10.81;51.89
15405;BME280;7801;48.124;11.590;2023-02-16T11:58:38;96408.63;;;10.93;52.33
15405;BME280;7801;48.124;11.590;2023-02-16T12:01:22;96396.72;;;10.76;50.83
15405;BME280;7801;48.124;11.590;2023-02-16T12:04:16;96399.62;;;10.79;50.08
15405;BME280;7801;48.124;11.590;2023-02-16T12:10:16;96396.41;;;10.92;48.44
15405;BME280;7801;48.124;11.590;2023-02-16T12:13:17;96386.06;;;11.01;48.54
15405;BME280;7801;48.124;11.590;2023-02-16T12:16:17;96380.22;;;10.89;48.09
15405;BME280;7801;48.124;11.590;2023-02-16T12:26:51;96369.50;;;11.24;48.02
15405;BME280;7801;48.124;11.590;2023-02-16T12:32:48;96363.91;;;11.26;48.02
15405;BME280;7801;48.124;11.590;2023-02-16T12:38:12;96355.31;;;11.54;45.18
15405;BME280;7801;48.124;11.590;2023-02-16T12:43:32;96365.59;;;11.66;44.65
15405;BME280;7801;48.124;11.590;2023-02-16T12:46:12;96358.94;;;11.79;44.59
15405;BME280;7801;48.124;11.590;2023-02-16T12:48:47;96362.12;;;11.81;45.06
15405;BME280;7801;48.124;11.590;2023-02-16T12:51:19;96360.56;;;11.64;45.40
15405;BME280;7801;48.124;11.590;2023-02-16T12:54:05;96355.31;;;11.54;44.95
15405;BME280;7801;48.124;11.590;2023-02-16T12:56:38;96356.25;;;11.74;43.70
15405;BME280;7801;48.124;11.590;2023-02-16T12:59:16;96344.56;;;11.75;44.69
15405;BME280;7801;48.124;11.590;2023-02-16T13:01:45;96349.44;;;11.57;43.92
15405;BME280;7801;48.124;11.590;2023-02-16T13:07:15;96332.31;;;11.84;45.17
15405;BME280;7801;48.124;11.590;2023-02-16T13:09:59;96335.47;;;11.86;43.68
15405;BME280;7801;48.124;11.590;2023-02-16T13:12:31;96325.44;;;11.78;43.77
15405;BME280;7801;48.124;11.590;2023-02-16T13:15:09;96336.63;;;11.69;44.66
15405;BME280;7801;48.124;11.590;2023-02-16T13:17:52;96328.53;;;11.90;43.17
15405;BME280;7801;48.124;11.590;2023-02-16T13:20:21;96323.97;;;12.00;43.54
15405;BME280;7801;48.124;11.590;2023-02-16T13:34:06;96314.94;;;11.96;43.33
15405;BME280;7801;48.124;11.590;2023-02-16T13:44:53;96314.06;;;13.59;59.14
15405;BME280;7801;48.124;11.590;2023-02-16T13:47:29;96303.63;;;14.52;54.93
15405;BME280;7801;48.124;11.590;2023-02-16T13:50:00;96303.25;;;15.27;53.73
15405;BME280;7801;48.124;11.590;2023-02-16T13:52:38;96298.88;;;15.44;43.85
15405;BME280;7801;48.124;11.590;2023-02-16T13:55:19;96306.88;;;15.72;42.80
15405;BME280;7801;48.124;11.590;2023-02-16T14:05:53;96307.09;;;16.42;38.23
15405;BME280;7801;48.124;11.590;2023-02-16T14:08:29;96305.75;;;16.54;39.16
15405;BME280;7801;48.124;11.590;2023-02-16T14:10:58;96299.88;;;15.62;36.80
15405;BME280;7801;48.124;11.590;2023-02-16T14:19:25;96309.12;;;13.71;37.69
15405;BME280;7801;48.124;11.590;2023-02-16T14:21:51;96299.03;;;13.50;39.52
15405;BME280;7801;48.124;11.590;2023-02-16T14:24:31;96298.38;;;13.15;40.03
15405;BME280;7801;48.124;11.590;2023-02-16T14:27:01;96296.63;;;13.05;38.73
15405;BME280;7801;48.124;11.590;2023-02-16T14:29:31;96294.06;;;12.95;39.34
15405;BME280;7801;48.124;11.590;2023-02-16T14:32:19;96297.56;;;12.67;39.75
15405;BME280;7801;48.124;11.590;2023-02-16T14:35:02;96293.47;;;12.74;39.73
15405;BME280;7801;48.124;11.590;2023-02-16T14:37:34;96292.66;;;12.79;40.49
15405;BME280;7801;48.124;11.590;2023-02-16T14:40:16;96289.97;;;13.03;39.25
15405;BME280;7801;48.124;11.590;2023-02-16T14:42:49;96287.31;;;12.79;40.20
15405;BME280;7801;48.124;11.590;2023-02-16T14:50:53;96286.81;;;12.48;40.71
15405;BME280;7801;48.124;11.590;2023-02-16T14:56:28;96283.31;;;12.82;39.70
15405;BME280;7801;48.124;11.590;2023-02-16T14:59:31;96289.06;;;12.65;40.55
15405;BME280;7801;48.124;11.590;2023-02-16T15:01:58;96283.75;;;12.65;39.62
15405;BME280;7801;48.124;11.590;2023-02-16T15:04:29;96283.16;;;12.68;39.96
15405;BME280;7801;48.124;11.590;2023-02-16T15:06:57;96289.06;;;12.65;40.26
15405;BME280;7801;48.124;11.590;2023-02-16T15:09:29;96282.28;;;12.49;39.78
15405;BME280;7801;48.124;11.590;2023-02-16T15:11:58;96280.72;;;12.48;39.65
15405;BME280;7801;48.124;11.590;2023-02-16T15:14:50;96279.34;;;12.50;39.74
15405;BME280;7801;48.124;11.590;2023-02-16T15:17:39;96275.56;;;12.56;40.16
15405;BME280;7801;48.124;11.590;2023-02-16T15:23:02;96277.91;;;12.34;40.57
15405;BME280;7801;48.124;11.590;2023-02-16T15:25:33;96269.91;;;12.39;40.65
15405;BME280;7801;48.124;11.590;2023-02-16T15:30:37;96276.16;;;12.24;40.31
15405;BME280;7801;48.124;11.590;2023-02-16T15:33:13;96268.63;;;12.31;40.76
15405;BME280;7801;48.124;11.590;2023-02-16T15:36:00;96276.88;;;12.30;40.60
15405;BME280;7801;48.124;11.590;2023-02-16T15:38:31;96275.53;;;12.32;40.18
15405;BME280;7801;48.124;11.590;2023-02-16T15:41:06;96281.19;;;12.26;40.20
15405;BME280;7801;48.124;11.590;2023-02-16T15:45:58;96279.50;;;12.35;39.75